sensor_id;sensor_type;location;lat;lon;timestamp;pressure;altitude;pressure_sealevel;temperature;humidity
85078;BME280;75413;50.144;8.456;2024-02-26T00:01:15;97200.56;;;8.23;57.33
85078;BME280;75413;50.144;8.456;2024-02-26T00:04:00;97167.00;;;8.19;57.40
85078;BME280;75413;50.144;8.456;2024-02-26T00:06:48;97186.97;;;8.20;57.21
85078;BME280;75413;50.144;8.456;2024-02-26T00:09:35;97190.47;;;8.27;57.09
85078;BME280;75413;50.144;8.456;2024-02-26T00:12:21;97193.94;;;8.34;57.86
85078;BME280;75413;50.144;8.456;2024-02-26T00:15:08;97193.56;;;8.37;57.17
85078;BME280;75413;50.144;8.456;2024-02-26T00:17:54;97189.53;;;8.41;57.27
85078;BME280;75413;50.144;8.456;2024-02-26T00:20:38;97163.22;;;8.28;56.70
85078;BME280;75413;50.144;8.456;2024-02-26T00:23:23;97167.28;;;8.30;58.32
85078;BME280;75413;50.144;8.456;2024-02-26T00:26:07;97142.78;;;8.23;58.71
85078;BME280;75413;50.144;8.456;2024-02-26T00:28:51;97142.78;;;8.23;58.80
85078;BME280;75413;50.144;8.456;2024-02-26T00:31:36;97141.19;;;8.29;57.99
85078;BME280;75413;50.144;8.456;2024-02-26T00:34:21;97146.25;;;8.24;57.09
85078;BME280;75413;50.144;8.456;2024-02-26T00:37:05;97091.97;;;7.97;57.21
85078;BME280;75413;50.144;8.456;2024-02-26T00:39:49;97133.31;;;8.22;57.11
85078;BME280;75413;50.144;8.456;2024-02-26T00:42:33;97138.56;;;8.22;57.41
85078;BME280;75413;50.144;8.456;2024-02-26T00:45:17;97125.22;;;8.24;57.34
85078;BME280;75413;50.144;8.456;2024-02-26T00:48:01;97123.22;;;8.32;57.70
85078;BME280;75413;50.144;8.456;2024-02-26T00:50:51;97120.78;;;8.31;57.33
85078;BME280;75413;50.144;8.456;2024-02-26T00:53:35;97128.47;;;8.32;57.58
85078;BME280;75413;50.144;8.456;2024-02-26T00:56:19;97135.75;;;8.24;57.35
85078;BME280;75413;50.144;8.456;2024-02-26T00:59:03;97135.13;;;8.28;57.05
85078;BME280;75413;50.144;8.456;2024-02-26T01:01:47;97146.69;;;8.34;56.66
85078;BME280;75413;50.144;8.456;2024-02-26T01:04:31;97153.97;;;8.38;56.07
85078;BME280;75413;50.144;8.456;2024-02-26T01:07:16;97128.06;;;8.29;56.72
85078;BME280;75413;50.144;8.456;2024-02-26T01:10:00;97116.75;;;8.28;57.12
85078;BME280;75413;50.144;8.456;2024-02-26T01:12:44;97142.84;;;8.36;57.70
85078;BME280;75413;50.144;8.456;2024-02-26T01:15:28;97120.81;;;8.37;57.15
85078;BME280;75413;50.144;8.456;2024-02-26T01:18:12;97087.28;;;8.26;56.94
85078;BME280;75413;50.144;8.456;2024-02-26T01:20:56;97115.38;;;8.39;57.17
85078;BME280;75413;50.144;8.456;2024-02-26T01:23:43;97122.47;;;8.38;56.67
85078;BME280;75413;50.144;8.456;2024-02-26T01:26:27;97135.34;;;8.33;56.55
85078;BME280;75413;50.144;8.456;2024-02-26T01:29:11;97132.38;;;8.43;56.77
85078;BME280;75413;50.144;8.456;2024-02-26T01:31:55;97134.78;;;8.38;57.23
85078;BME280;75413;50.144;8.456;2024-02-26T01:34:41;97139.03;;;8.45;57.21
85078;BME280;75413;50.144;8.456;2024-02-26T01:37:25;97149.97;;;8.42;56.23
85078;BME280;75413;50.144;8.456;2024-02-26T01:40:10;97143.09;;;8.48;56.59
85078;BME280;75413;50.144;8.456;2024-02-26T01:42:54;97156.22;;;8.48;56.69
85078;BME280;75413;50.144;8.456;2024-02-26T01:45:38;97148.25;;;8.28;56.41
85078;BME280;75413;50.144;8.456;2024-02-26T01:48:22;97177.22;;;8.48;56.65
85078;BME280;75413;50.144;8.456;2024-02-26T01:51:07;97154.97;;;8.44;57.09
85078;BME280;75413;50.144;8.456;2024-02-26T01:53:51;97123.81;;;8.21;57.32
85078;BME280;75413;50.144;8.456;2024-02-26T01:56:37;97120.00;;;8.30;56.71
85078;BME280;75413;50.144;8.456;2024-02-26T01:59:22;97127.09;;;8.43;56.64
85078;BME280;75413;50.144;8.456;2024-02-26T02:02:08;97121.03;;;8.36;57.18
85078;BME280;75413;50.144;8.456;2024-02-26T02:04:56;97125.47;;;8.35;56.86
85078;BME280;75413;50.144;8.456;2024-02-26T02:07:40;97126.25;;;8.23;57.24
85078;BME280;75413;50.144;8.456;2024-02-26T02:10:26;97142.41;;;8.26;56.62
85078;BME280;75413;50.144;8.456;2024-02-26T02:13:10;97149.81;;;8.16;57.50
85078;BME280;75413;50.144;8.456;2024-02-26T02:15:54;97161.59;;;8.27;57.83
85078;BME280;75413;50.144;8.456;2024-02-26T02:18:38;97149.50;;;8.32;57.23
85078;BME280;75413;50.144;8.456;2024-02-26T02:21:22;97160.81;;;8.33;57.34
85078;BME280;75413;50.144;8.456;2024-02-26T02:24:06;97154.97;;;8.37;57.66
85078;BME280;75413;50.144;8.456;2024-02-26T02:26:50;97160.63;;;8.34;57.35
85078;BME280;75413;50.144;8.456;2024-02-26T02:29:33;97167.50;;;8.35;57.22
85078;BME280;75413;50.144;8.456;2024-02-26T02:32:17;97163.63;;;8.31;57.91
85078;BME280;75413;50.144;8.456;2024-02-26T02:35:03;97181.22;;;8.37;57.32
85078;BME280;75413;50.144;8.456;2024-02-26T02:37:47;97158.75;;;8.28;57.38
85078;BME280;75413;50.144;8.456;2024-02-26T02:40:31;97176.19;;;8.36;57.25
85078;BME280;75413;50.144;8.456;2024-02-26T02:43:15;97177.97;;;8.29;58.48
85078;BME280;75413;50.144;8.456;2024-02-26T02:46:02;97167.63;;;8.21;58.19
85078;BME280;75413;50.144;8.456;2024-02-26T02:48:46;97181.16;;;8.24;59.21
85078;BME280;75413;50.144;8.456;2024-02-26T02:51:30;97157.47;;;8.18;58.28
85078;BME280;75413;50.144;8.456;2024-02-26T02:54:14;97168.03;;;8.24;58.42
85078;BME280;75413;50.144;8.456;2024-02-26T02:56:58;97180.56;;;8.22;58.31
85078;BME280;75413;50.144;8.456;2024-02-26T02:59:42;97166.03;;;8.26;58.73
85078;BME280;75413;50.144;8.456;2024-02-26T03:02:26;97179.28;;;8.18;58.77
85078;BME280;75413;50.144;8.456;2024-02-26T03:05:10;97179.75;;;8.22;58.49
85078;BME280;75413;50.144;8.456;2024-02-26T03:07:54;97170.16;;;8.08;57.96
85078;BME280;75413;50.144;8.456;2024-02-26T03:10:38;97171.88;;;8.22;58.78
85078;BME280;75413;50.144;8.456;2024-02-26T03:13:22;97171.47;;;8.25;58.82
85078;BME280;75413;50.144;8.456;2024-02-26T03:16:06;97171.88;;;8.22;58.97
85078;BME280;75413;50.144;8.456;2024-02-26T03:18:50;97173.28;;;8.24;58.92
85078;BME280;75413;50.144;8.456;2024-02-26T03:21:34;97182.19;;;8.23;59.04
85078;BME280;75413;50.144;8.456;2024-02-26T03:24:18;97175.13;;;8.24;59.08
85078;BME280;75413;50.144;8.456;2024-02-26T03:27:05;97166.13;;;8.12;59.48
85078;BME280;75413;50.144;8.456;2024-02-26T03:29:52;97180.50;;;8.16;58.67
85078;BME280;75413;50.144;8.456;2024-02-26T03:32:36;97174.88;;;8.19;59.26
85078;BME280;75413;50.144;8.456;2024-02-26T03:35:23;97188.84;;;8.26;59.37
85078;BME280;75413;50.144;8.456;2024-02-26T03:38:07;97185.16;;;8.20;59.23
85078;BME280;75413;50.144;8.456;2024-02-26T03:40:51;97186.16;;;8.19;59.53
85078;BME280;75413;50.144;8.456;2024-02-26T03:43:35;97177.84;;;8.09;59.64
85078;BME280;75413;50.144;8.456;2024-02-26T03:46:19;97181.69;;;8.13;60.02
85078;BME280;75413;50.144;8.456;2024-02-26T03:49:03;97177.47;;;8.12;60.07
85078;BME280;75413;50.144;8.456;2024-02-26T03:51:50;97189.59;;;8.20;60.05
85078;BME280;75413;50.144;8.456;2024-02-26T03:54:34;97195.44;;;8.15;59.87
85078;BME280;75413;50.144;8.456;2024-02-26T03:57:18;97194.84;;;8.20;61.02
85078;BME280;75413;50.144;8.456;2024-02-26T04:00:02;97191.88;;;8.23;61.08
85078;BME280;75413;50.144;8.456;2024-02-26T04:02:54;97191.00;;;8.16;60.44
85078;BME280;75413;50.144;8.456;2024-02-26T04:05:39;97195.84;;;8.12;61.03
85078;BME280;75413;50.144;8.456;2024-02-26T04:08:23;97193.97;;;8.06;62.31
85078;BME280;75413;50.144;8.456;2024-02-26T04:11:07;97174.94;;;7.98;63.55
85078;BME280;75413;50.144;8.456;2024-02-26T04:13:51;97193.53;;;8.03;64.04
85078;BME280;75413;50.144;8.456;2024-02-26T04:16:36;97191.28;;;8.00;65.65
85078;BME280;75413;50.144;8.456;2024-02-26T04:19:20;97187.22;;;7.91;66.57
85078;BME280;75413;50.144;8.456;2024-02-26T04:22:04;97187.81;;;7.86;66.85
85078;BME280;75413;50.144;8.456;2024-02-26T04:24:49;97192.19;;;7.79;67.21
85078;BME280;75413;50.144;8.456;2024-02-26T04:27:33;97192.19;;;7.79;69.51
85078;BME280;75413;50.144;8.456;2024-02-26T04:30:17;97133.38;;;7.39;69.96
85078;BME280;75413;50.144;8.456;2024-02-26T04:33:02;97186.06;;;7.72;69.70
85078;BME280;75413;50.144;8.456;2024-02-26T04:35:46;97187.91;;;7.72;70.19
85078;BME280;75413;50.144;8.456;2024-02-26T04:38:29;97193.53;;;7.68;70.62
85078;BME280;75413;50.144;8.456;2024-02-26T04:41:13;97182.16;;;7.61;70.06
85078;BME280;75413;50.144;8.456;2024-02-26T04:43:57;97186.56;;;7.54;70.84
85078;BME280;75413;50.144;8.456;2024-02-26T04:46:41;97176.44;;;7.51;70.21
85078;BME280;75413;50.144;8.456;2024-02-26T04:49:25;97156.59;;;7.42;70.68
85078;BME280;75413;50.144;8.456;2024-02-26T04:52:09;97184.78;;;7.61;70.73
85078;BME280;75413;50.144;8.456;2024-02-26T04:54:53;97190.03;;;7.61;70.92
85078;BME280;75413;50.144;8.456;2024-02-26T04:57:38;97181.31;;;7.54;70.72
85078;BME280;75413;50.144;8.456;2024-02-26T05:00:22;97191.09;;;7.67;70.55
85078;BME280;75413;50.144;8.456;2024-02-26T05:03:06;97202.78;;;7.64;71.81
85078;BME280;75413;50.144;8.456;2024-02-26T05:05:51;97195.09;;;7.63;72.07
85078;BME280;75413;50.144;8.456;2024-02-26T05:08:35;97189.91;;;7.48;72.16
85078;BME280;75413;50.144;8.456;2024-02-26T05:11:20;97211.13;;;7.47;72.28
85078;BME280;75413;50.144;8.456;2024-02-26T05:14:04;97201.06;;;7.50;73.43
85078;BME280;75413;50.144;8.456;2024-02-26T05:16:48;97180.69;;;7.31;72.14
85078;BME280;75413;50.144;8.456;2024-02-26T05:19:31;97213.94;;;7.45;73.38
85078;BME280;75413;50.144;8.456;2024-02-26T05:22:19;97211.66;;;7.42;73.35
85078;BME280;75413;50.144;8.456;2024-02-26T05:25:03;97181.91;;;7.29;73.05
85078;BME280;75413;50.144;8.456;2024-02-26T05:27:47;97204.81;;;7.41;73.17
85078;BME280;75413;50.144;8.456;2024-02-26T05:30:32;97202.78;;;7.43;72.88
85078;BME280;75413;50.144;8.456;2024-02-26T05:33:16;97203.56;;;7.37;72.28
85078;BME280;75413;50.144;8.456;2024-02-26T05:35:59;97198.94;;;7.39;71.89
85078;BME280;75413;50.144;8.456;2024-02-26T05:38:48;97208.03;;;7.43;72.01
85078;BME280;75413;50.144;8.456;2024-02-26T05:41:32;97203.44;;;7.45;72.37
85078;BME280;75413;50.144;8.456;2024-02-26T05:44:16;97200.69;;;7.32;71.84
85078;BME280;75413;50.144;8.456;2024-02-26T05:47:00;97215.66;;;7.38;73.02
85078;BME280;75413;50.144;8.456;2024-02-26T05:49:44;97218.91;;;7.40;72.32
85078;BME280;75413;50.144;8.456;2024-02-26T05:52:28;97190.16;;;7.26;72.23
85078;BME280;75413;50.144;8.456;2024-02-26T05:55:15;97207.56;;;7.33;71.96
85078;BME280;75413;50.144;8.456;2024-02-26T05:57:59;97171.81;;;7.05;72.12
85078;BME280;75413;50.144;8.456;2024-02-26T06:00:43;97207.31;;;7.28;73.04
85078;BME280;75413;50.144;8.456;2024-02-26T06:03:27;97209.94;;;7.28;72.06
85078;BME280;75413;50.144;8.456;2024-02-26T06:06:12;97211.31;;;7.24;72.46
85078;BME280;75413;50.144;8.456;2024-02-26T06:08:56;97218.53;;;7.22;73.13
85078;BME280;75413;50.144;8.456;2024-02-26T06:11:41;97218.09;;;7.19;72.98
85078;BME280;75413;50.144;8.456;2024-02-26T06:14:25;97197.97;;;6.98;72.55
85078;BME280;75413;50.144;8.456;2024-02-26T06:17:08;97230.16;;;7.13;72.97
85078;BME280;75413;50.144;8.456;2024-02-26T06:19:53;97241.03;;;7.10;73.60
85078;BME280;75413;50.144;8.456;2024-02-26T06:22:36;97213.78;;;6.90;73.72
85078;BME280;75413;50.144;8.456;2024-02-26T06:25:21;97241.81;;;7.11;73.77
85078;BME280;75413;50.144;8.456;2024-02-26T06:28:05;97228.41;;;6.99;73.68
85078;BME280;75413;50.144;8.456;2024-02-26T06:30:52;97250.50;;;7.11;73.51
85078;BME280;75413;50.144;8.456;2024-02-26T06:33:36;97251.03;;;7.07;73.28
85078;BME280;75413;50.144;8.456;2024-02-26T06:36:20;97255.28;;;7.08;73.11
85078;BME280;75413;50.144;8.456;2024-02-26T06:39:04;97262.59;;;7.12;73.48
85078;BME280;75413;50.144;8.456;2024-02-26T06:41:49;97277.50;;;7.12;73.74
85078;BME280;75413;50.144;8.456;2024-02-26T06:44:33;97283.75;;;7.11;73.60
85078;BME280;75413;50.144;8.456;2024-02-26T06:47:17;97278.50;;;7.11;74.26
85078;BME280;75413;50.144;8.456;2024-02-26T06:50:01;97280.78;;;7.14;73.45
85078;BME280;75413;50.144;8.456;2024-02-26T06:52:45;97282.56;;;7.13;73.33
85078;BME280;75413;50.144;8.456;2024-02-26T06:55:30;97290.69;;;7.18;73.90
85078;BME280;75413;50.144;8.456;2024-02-26T06:58:14;97298.38;;;7.20;73.88
85078;BME280;75413;50.144;8.456;2024-02-26T07:00:58;97290.09;;;7.02;73.87
85078;BME280;75413;50.144;8.456;2024-02-26T07:03:42;97304.97;;;7.16;73.84
85078;BME280;75413;50.144;8.456;2024-02-26T07:06:27;97265.00;;;6.93;74.07
85078;BME280;75413;50.144;8.456;2024-02-26T07:09:10;97295.16;;;7.03;73.93
85078;BME280;75413;50.144;8.456;2024-02-26T07:11:58;97311.03;;;7.16;74.31
85078;BME280;75413;50.144;8.456;2024-02-26T07:14:42;97316.03;;;7.11;73.43
85078;BME280;75413;50.144;8.456;2024-02-26T07:17:27;97316.88;;;7.18;73.42
85078;BME280;75413;50.144;8.456;2024-02-26T07:20:11;97321.53;;;7.16;74.36
85078;BME280;75413;50.144;8.456;2024-02-26T07:22:56;97323.31;;;7.16;73.29
85078;BME280;75413;50.144;8.456;2024-02-26T07:25:40;97330.00;;;7.18;73.08
85078;BME280;75413;50.144;8.456;2024-02-26T07:28:25;97327.94;;;7.14;73.46
85078;BME280;75413;50.144;8.456;2024-02-26T07:31:09;97309.97;;;6.96;74.52
85078;BME280;75413;50.144;8.456;2024-02-26T07:33:53;97330.56;;;7.14;74.23
85078;BME280;75413;50.144;8.456;2024-02-26T07:36:40;97326.41;;;7.19;73.02
85078;BME280;75413;50.144;8.456;2024-02-26T07:39:24;97336.69;;;7.21;72.45
85078;BME280;75413;50.144;8.456;2024-02-26T07:42:08;97332.38;;;7.13;73.20
85078;BME280;75413;50.144;8.456;2024-02-26T07:44:52;97331.94;;;7.10;73.83
85078;BME280;75413;50.144;8.456;2024-02-26T07:47:36;97340.63;;;7.10;74.15
85078;BME280;75413;50.144;8.456;2024-02-26T07:50:24;97341.66;;;7.16;74.00
85078;BME280;75413;50.144;8.456;2024-02-26T07:53:08;97342.41;;;7.10;73.17
85078;BME280;75413;50.144;8.456;2024-02-26T07:55:52;97329.75;;;6.99;74.25
85078;BME280;75413;50.144;8.456;2024-02-26T07:58:36;97342.94;;;7.05;73.40
85078;BME280;75413;50.144;8.456;2024-02-26T08:01:20;97331.84;;;7.03;73.26
85078;BME280;75413;50.144;8.456;2024-02-26T08:04:04;97345.03;;;7.10;72.52
85078;BME280;75413;50.144;8.456;2024-02-26T08:06:49;97300.06;;;6.92;73.59
85078;BME280;75413;50.144;8.456;2024-02-26T08:09:33;97322.47;;;6.94;73.47
85078;BME280;75413;50.144;8.456;2024-02-26T08:12:17;97350.19;;;7.18;72.50
85078;BME280;75413;50.144;8.456;2024-02-26T08:15:01;97316.47;;;7.00;73.39
85078;BME280;75413;50.144;8.456;2024-02-26T08:17:45;97350.25;;;7.24;72.56
85078;BME280;75413;50.144;8.456;2024-02-26T08:20:31;97364.06;;;7.33;73.24
85078;BME280;75413;50.144;8.456;2024-02-26T08:23:16;97363.63;;;7.29;72.34
85078;BME280;75413;50.144;8.456;2024-02-26T08:25:59;97356.50;;;7.23;73.34
85078;BME280;75413;50.144;8.456;2024-02-26T08:28:43;97366.31;;;7.36;73.64
85078;BME280;75413;50.144;8.456;2024-02-26T08:31:28;97354.56;;;7.32;73.48
85078;BME280;75413;50.144;8.456;2024-02-26T08:34:13;97380.69;;;7.40;74.14
85078;BME280;75413;50.144;8.456;2024-02-26T08:36:57;97370.97;;;7.40;73.99
85078;BME280;75413;50.144;8.456;2024-02-26T08:39:41;97354.13;;;7.28;73.61
85078;BME280;75413;50.144;8.456;2024-02-26T08:42:25;97373.59;;;7.40;72.85
85078;BME280;75413;50.144;8.456;2024-02-26T08:45:09;97368.47;;;7.47;73.31
85078;BME280;75413;50.144;8.456;2024-02-26T08:47:53;97356.81;;;7.35;72.56
85078;BME280;75413;50.144;8.456;2024-02-26T08:50:37;97357.69;;;7.42;73.03
85078;BME280;75413;50.144;8.456;2024-02-26T08:53:21;97362.91;;;7.56;73.01
85078;BME280;75413;50.144;8.456;2024-02-26T08:56:06;97362.81;;;7.50;72.51
85078;BME280;75413;50.144;8.456;2024-02-26T08:58:50;97363.78;;;7.63;73.32
85078;BME280;75413;50.144;8.456;2024-02-26T09:01:37;97366.41;;;7.63;73.50
85078;BME280;75413;50.144;8.456;2024-02-26T09:04:21;97370.72;;;7.71;72.82
85078;BME280;75413;50.144;8.456;2024-02-26T09:07:05;97370.59;;;7.79;72.71
85078;BME280;75413;50.144;8.456;2024-02-26T09:09:49;97375.84;;;7.79;72.23
85078;BME280;75413;50.144;8.456;2024-02-26T09:12:34;97363.91;;;7.77;71.98
85078;BME280;75413;50.144;8.456;2024-02-26T09:15:18;97379.38;;;7.86;72.99
85078;BME280;75413;50.144;8.456;2024-02-26T09:18:02;97378.47;;;7.79;73.08
85078;BME280;75413;50.144;8.456;2024-02-26T09:20:46;97371.97;;;7.75;72.32
85078;BME280;75413;50.144;8.456;2024-02-26T09:23:30;97377.09;;;7.83;73.57
85078;BME280;75413;50.144;8.456;2024-02-26T09:26:14;97379.22;;;7.94;73.67
85078;BME280;75413;50.144;8.456;2024-02-26T09:28:58;97375.84;;;8.00;73.40
85078;BME280;75413;50.144;8.456;2024-02-26T09:31:42;97345.72;;;7.75;73.34
85078;BME280;75413;50.144;8.456;2024-02-26T09:34:27;97380.28;;;8.00;73.50
85078;BME280;75413;50.144;8.456;2024-02-26T09:37:12;97376.47;;;8.02;72.92
85078;BME280;75413;50.144;8.456;2024-02-26T09:39:56;97374.06;;;8.07;73.06
85078;BME280;75413;50.144;8.456;2024-02-26T09:42:43;97384.84;;;8.12;72.31
85078;BME280;75413;50.144;8.456;2024-02-26T09:45:29;97335.44;;;7.73;71.99
85078;BME280;75413;50.144;8.456;2024-02-26T09:48:15;97385.59;;;8.06;72.67
85078;BME280;75413;50.144;8.456;2024-02-26T09:51:05;97301.00;;;7.41;72.53
85078;BME280;75413;50.144;8.456;2024-02-26T09:53:51;97356.22;;;7.75;72.93
85078;BME280;75413;50.144;8.456;2024-02-26T09:56:42;97406.53;;;8.00;73.25
85078;BME280;75413;50.144;8.456;2024-02-26T09:59:27;97408.47;;;8.12;74.19
85078;BME280;75413;50.144;8.456;2024-02-26T10:02:13;97407.66;;;8.12;73.79
85078;BME280;75413;50.144;8.456;2024-02-26T10:04:59;97416.13;;;8.14;73.30
85078;BME280;75413;50.144;8.456;2024-02-26T10:07:45;97414.28;;;8.08;73.75
85078;BME280;75413;50.144;8.456;2024-02-26T10:10:30;97399.41;;;8.15;73.68
85078;BME280;75413;50.144;8.456;2024-02-26T10:13:15;97414.25;;;8.22;73.02
85078;BME280;75413;50.144;8.456;2024-02-26T10:16:00;97416.34;;;8.12;74.14
85078;BME280;75413;50.144;8.456;2024-02-26T10:18:52;97421.59;;;8.12;74.15
85078;BME280;75413;50.144;8.456;2024-02-26T10:21:37;97418.59;;;8.15;73.97
85078;BME280;75413;50.144;8.456;2024-02-26T10:24:21;97422.19;;;8.29;74.23
85078;BME280;75413;50.144;8.456;2024-02-26T10:27:05;97423.38;;;8.26;72.72
85078;BME280;75413;50.144;8.456;2024-02-26T10:29:50;97415.91;;;8.30;73.49
85078;BME280;75413;50.144;8.456;2024-02-26T10:32:35;97415.53;;;8.54;72.76
85078;BME280;75413;50.144;8.456;2024-02-26T10:35:19;97426.72;;;8.69;73.41
85078;BME280;75413;50.144;8.456;2024-02-26T10:38:09;97439.06;;;8.68;72.50
85078;BME280;75413;50.144;8.456;2024-02-26T10:40:53;97401.50;;;8.47;71.75
85078;BME280;75413;50.144;8.456;2024-02-26T10:43:38;97415.75;;;8.59;72.75
85078;BME280;75413;50.144;8.456;2024-02-26T10:46:22;97438.13;;;8.76;72.84
85078;BME280;75413;50.144;8.456;2024-02-26T10:49:13;97449.00;;;9.00;71.81
85078;BME280;75413;50.144;8.456;2024-02-26T10:51:58;97455.94;;;9.14;71.68
85078;BME280;75413;50.144;8.456;2024-02-26T10:54:44;97418.91;;;9.09;71.63
85078;BME280;75413;50.144;8.456;2024-02-26T10:57:33;97442.31;;;9.38;70.24
85078;BME280;75413;50.144;8.456;2024-02-26T11:00:18;97451.69;;;9.47;71.23
85078;BME280;75413;50.144;8.456;2024-02-26T11:03:03;97451.25;;;9.37;70.66
85078;BME280;75413;50.144;8.456;2024-02-26T11:05:49;97455.22;;;9.27;70.64
85078;BME280;75413;50.144;8.456;2024-02-26T11:08:34;97430.53;;;9.28;71.44
85078;BME280;75413;50.144;8.456;2024-02-26T11:11:20;97455.56;;;9.58;70.70
85078;BME280;75413;50.144;8.456;2024-02-26T11:14:05;97427.22;;;9.60;70.45
85078;BME280;75413;50.144;8.456;2024-02-26T11:16:51;97435.63;;;9.83;69.46
85078;BME280;75413;50.144;8.456;2024-02-26T11:19:36;97453.34;;;10.15;70.07
85078;BME280;75413;50.144;8.456;2024-02-26T11:22:21;97443.41;;;10.10;69.37
85078;BME280;75413;50.144;8.456;2024-02-26T11:25:06;97453.38;;;10.41;69.39
85078;BME280;75413;50.144;8.456;2024-02-26T11:27:56;97435.94;;;10.33;68.52
85078;BME280;75413;50.144;8.456;2024-02-26T11:30:45;97460.69;;;10.45;68.64
85078;BME280;75413;50.144;8.456;2024-02-26T11:33:31;97459.47;;;10.61;68.54
85078;BME280;75413;50.144;8.456;2024-02-26T11:36:19;97448.31;;;10.39;68.16
85078;BME280;75413;50.144;8.456;2024-02-26T11:39:04;97477.09;;;10.54;68.43
85078;BME280;75413;50.144;8.456;2024-02-26T11:41:48;97458.44;;;10.42;68.42
85078;BME280;75413;50.144;8.456;2024-02-26T11:44:32;97477.72;;;10.56;68.55
85078;BME280;75413;50.144;8.456;2024-02-26T11:47:22;97477.31;;;10.78;68.20
85078;BME280;75413;50.144;8.456;2024-02-26T11:53:46;97465.31;;;11.02;66.04
85078;BME280;75413;50.144;8.456;2024-02-26T11:56:33;97456.81;;;11.00;65.67
85078;BME280;75413;50.144;8.456;2024-02-26T11:59:37;97458.03;;;11.10;66.73
85078;BME280;75413;50.144;8.456;2024-02-26T12:02:58;97463.69;;;11.14;66.29
85078;BME280;75413;50.144;8.456;2024-02-26T12:05:48;97461.47;;;10.98;66.59
85078;BME280;75413;50.144;8.456;2024-02-26T12:08:34;97464.34;;;10.90;66.78
85078;BME280;75413;50.144;8.456;2024-02-26T12:11:20;97428.25;;;10.64;66.28
85078;BME280;75413;50.144;8.456;2024-02-26T12:14:05;97462.50;;;10.77;67.53
85078;BME280;75413;50.144;8.456;2024-02-26T12:16:51;97425.22;;;10.61;68.06
85078;BME280;75413;50.144;8.456;2024-02-26T12:19:36;97480.38;;;10.95;67.48
85078;BME280;75413;50.144;8.456;2024-02-26T12:22:20;97460.50;;;10.79;67.21
85078;BME280;75413;50.144;8.456;2024-02-26T12:25:05;97482.38;;;10.73;67.13
85078;BME280;75413;50.144;8.456;2024-02-26T12:27:49;97467.97;;;10.50;67.43
85078;BME280;75413;50.144;8.456;2024-02-26T12:30:33;97488.47;;;10.61;67.27
85078;BME280;75413;50.144;8.456;2024-02-26T12:33:18;97487.06;;;10.65;67.08
85078;BME280;75413;50.144;8.456;2024-02-26T12:36:02;97501.03;;;10.59;67.66
85078;BME280;75413;50.144;8.456;2024-02-26T12:38:50;97501.47;;;10.62;67.57
85078;BME280;75413;50.144;8.456;2024-02-26T12:41:35;97462.09;;;10.35;67.76
85078;BME280;75413;50.144;8.456;2024-02-26T12:44:25;97502.25;;;10.63;67.28
85078;BME280;75413;50.144;8.456;2024-02-26T12:47:09;97502.69;;;10.73;67.52
85078;BME280;75413;50.144;8.456;2024-02-26T12:49:56;97480.38;;;10.88;67.12
85078;BME280;75413;50.144;8.456;2024-02-26T12:52:44;97491.94;;;11.07;67.67
85078;BME280;75413;50.144;8.456;2024-02-26T12:55:28;97498.59;;;11.22;66.23
85078;BME280;75413;50.144;8.456;2024-02-26T12:58:17;97505.06;;;11.46;65.79
85078;BME280;75413;50.144;8.456;2024-02-26T13:01:04;97509.50;;;11.52;65.40
85078;BME280;75413;50.144;8.456;2024-02-26T13:03:49;97499.16;;;11.37;65.81
85078;BME280;75413;50.144;8.456;2024-02-26T13:06:32;97506.91;;;11.32;65.85
85078;BME280;75413;50.144;8.456;2024-02-26T13:09:17;97506.06;;;11.32;65.62
85078;BME280;75413;50.144;8.456;2024-02-26T13:12:06;97510.75;;;11.30;64.95
85078;BME280;75413;50.144;8.456;2024-02-26T13:15:00;97481.13;;;11.21;65.56
85078;BME280;75413;50.144;8.456;2024-02-26T13:17:45;97520.88;;;11.46;65.13
85078;BME280;75413;50.144;8.456;2024-02-26T13:20:30;97520.47;;;11.49;65.84
85078;BME280;75413;50.144;8.456;2024-02-26T13:23:14;97531.00;;;11.49;64.66
85078;BME280;75413;50.144;8.456;2024-02-26T13:25:58;97527.56;;;11.55;64.33
85078;BME280;75413;50.144;8.456;2024-02-26T13:28:42;97539.53;;;11.57;64.58
85078;BME280;75413;50.144;8.456;2024-02-26T13:31:26;97542.00;;;11.46;65.08
85078;BME280;75413;50.144;8.456;2024-02-26T13:34:10;97538.34;;;11.47;65.64
85078;BME280;75413;50.144;8.456;2024-02-26T13:36:54;97536.72;;;11.46;65.60
85078;BME280;75413;50.144;8.456;2024-02-26T13:39:38;97548.88;;;11.53;66.22
85078;BME280;75413;50.144;8.456;2024-02-26T13:42:22;97539.34;;;11.59;65.33
85078;BME280;75413;50.144;8.456;2024-02-26T13:45:06;97550.09;;;11.70;64.50
85078;BME280;75413;50.144;8.456;2024-02-26T13:47:50;97499.34;;;11.42;66.24
85078;BME280;75413;50.144;8.456;2024-02-26T13:50:34;97531.41;;;11.78;63.87
85078;BME280;75413;50.144;8.456;2024-02-26T13:53:18;97525.16;;;11.60;64.59
85078;BME280;75413;50.144;8.456;2024-02-26T13:56:03;97550.50;;;11.74;64.16
85078;BME280;75413;50.144;8.456;2024-02-26T13:58:49;97548.06;;;11.66;64.23
85078;BME280;75413;50.144;8.456;2024-02-26T14:01:33;97548.84;;;11.79;64.22
85078;BME280;75413;50.144;8.456;2024-02-26T14:04:17;97549.19;;;11.96;63.30
85078;BME280;75413;50.144;8.456;2024-02-26T14:07:01;97547.34;;;12.03;63.29
85078;BME280;75413;50.144;8.456;2024-02-26T14:09:45;97552.41;;;12.11;62.71
85078;BME280;75413;50.144;8.456;2024-02-26T14:12:30;97552.72;;;12.27;61.84
85078;BME280;75413;50.144;8.456;2024-02-26T14:15:14;97536.25;;;12.32;61.73
85078;BME280;75413;50.144;8.456;2024-02-26T14:17:58;97536.19;;;12.45;62.24
85078;BME280;75413;50.144;8.456;2024-02-26T14:20:42;97549.78;;;12.48;61.76
85078;BME280;75413;50.144;8.456;2024-02-26T14:23:26;97552.22;;;12.50;61.89
85078;BME280;75413;50.144;8.456;2024-02-26T14:26:10;97559.00;;;12.33;61.67
85078;BME280;75413;50.144;8.456;2024-02-26T14:28:55;97548.22;;;12.34;61.99
85078;BME280;75413;50.144;8.456;2024-02-26T14:31:39;97548.41;;;12.39;61.86
85078;BME280;75413;50.144;8.456;2024-02-26T14:34:26;97562.28;;;12.66;60.99
85078;BME280;75413;50.144;8.456;2024-02-26T14:37:10;97567.53;;;12.72;60.95
85078;BME280;75413;50.144;8.456;2024-02-26T14:39:54;97572.25;;;12.64;61.69
85078;BME280;75413;50.144;8.456;2024-02-26T14:42:39;97568.84;;;12.57;60.66
85078;BME280;75413;50.144;8.456;2024-02-26T14:45:23;97568.19;;;12.30;61.45